RKTY/YEC METAR and TAF weather

Enter ICAO airport designator
Station Type Date Time Source
RKTY METAR 2021/05/10 20:29 UTC NOAA

RKTY 102029Z KT RMK WR26


Station Type Date Time Source
RKTY Decoded METAR 2021/05/10 20:29 UTC NOAA

Yechon Ab, Korea, South (RKTY) 36-38N 128-21E 120M
May 10, 2021 - 04:29 PM EDT / 2021.05.10 2029 UTC
ob: RKTY 102029Z KT RMK WR26
cycle: 20

Station Type Date Time Source
RKTY TAF 2013/10/14 21:45 UTC NOAA

TAF
AMD TAF
AMD RKTY 142130Z 1421/1524 09006KT 1600 BR FEW005 SCT030
BECMG 1422/1423 09006KT 4800 BR BKN030 BKN200
BECMG 1503/1504 09006KT 8000 -RA BR SCT015 OVC030
BECMG 1513/1514 09006KT 9999 NSW BKN030 TX17/1506Z TN07/1521Z

Example: see airport list